Time;durP1;ratioP1;P1;durP2;ratioP2;P2;SDS_P1;SDS_P2;PMS_P1;PMS_P2;Temp;Humidity;BMP_temperature;BMP_pressure;BME280_temperature;BME280_humidity;BME280_pressure;Samples;Min_cycle;Max_cycle;Signal;HPM_P1;HPM_P2
2022/08/31 00:05:23;;;;;;;10.27;9.48;;;;;;;23.27;71.90;100947.13;5016625;28;102446;-50
2022/08/31 00:07:50;;;;;;;10.10;9.38;;;;;;;23.27;72.30;100946.31;5015577;28;104237;-50
2022/08/31 00:10:18;;;;;;;11.52;10.63;;;;;;;23.28;72.10;100950.69;5015084;28;102541;-50
2022/08/31 00:12:48;;;;;;;10.65;9.95;;;;;;;23.26;72.51;100953.84;5015507;28;102188;-51
2022/08/31 00:15:18;;;;;;;10.52;9.73;;;;;;;23.26;72.34;100941.91;5016905;28;102251;-50
2022/08/31 00:17:45;;;;;;;10.32;9.63;;;;;;;23.26;72.24;100953.00;5015190;28;103900;-50
2022/08/31 00:20:13;;;;;;;10.75;9.85;;;;;;;23.27;72.51;100946.31;5020125;28;102157;-50
2022/08/31 00:22:40;;;;;;;10.93;10.23;;;;;;;23.26;72.07;100942.72;5035598;27;102418;-50
2022/08/31 00:25:07;;;;;;;10.88;10.07;;;;;;;23.26;72.53;100948.28;5036121;27;102378;-50
2022/08/31 00:27:34;;;;;;;10.82;9.93;;;;;;;23.25;72.36;100934.72;5034703;27;104264;-50
2022/08/31 00:30:03;;;;;;;9.68;8.98;;;;;;;23.26;72.40;100931.63;5035574;27;102248;-51
2022/08/31 00:32:30;;;;;;;11.77;10.80;;;;;;;23.26;72.60;100926.06;5026609;27;102397;-50
2022/08/31 00:34:57;;;;;;;10.43;9.73;;;;;;;23.26;72.29;100926.06;5027956;27;102317;-50
2022/08/31 00:37:23;;;;;;;10.20;9.50;;;;;;;23.26;72.40;100926.06;5033906;27;103922;-50
2022/08/31 00:39:51;;;;;;;10.93;10.05;;;;;;;23.24;72.14;100928.38;5036082;27;102204;-51
2022/08/31 00:42:18;;;;;;;10.70;9.97;;;;;;;23.24;72.30;100922.81;5055408;27;102011;-50
2022/08/31 00:44:45;;;;;;;10.43;9.73;;;;;;;23.24;72.56;100922.81;5037431;27;102445;-51
2022/08/31 00:47:14;;;;;;;10.50;9.77;;;;;;;23.24;72.36;100911.72;5015279;28;103794;-50
2022/08/31 00:49:46;;;;;;;10.15;9.43;;;;;;;23.25;72.30;100918.06;5014942;28;101887;-50
2022/08/31 00:52:15;;;;;;;10.57;9.77;;;;;;;23.25;72.26;100913.31;5014625;28;102288;-50
2022/08/31 00:54:46;;;;;;;11.02;10.30;;;;;;;23.25;72.32;100916.09;5032456;27;102189;-51
2022/08/31 00:57:14;;;;;;;9.82;9.05;;;;;;;23.24;72.30;100920.06;5016187;28;103937;-50
2022/08/31 00:59:42;;;;;;;10.23;9.45;;;;;;;23.24;72.31;100928.38;5015007;28;102181;-50
2022/08/31 01:02:09;;;;;;;9.73;9.05;;;;;;;23.26;72.38;100931.63;5014837;28;101896;-51
2022/08/31 01:04:39;;;;;;;10.30;9.60;;;;;;;23.25;72.13;100929.19;5016283;28;102099;-50
2022/08/31 01:07:07;;;;;;;9.20;8.60;;;;;;;23.25;72.24;100935.53;5014223;28;104031;-51
2022/08/31 01:09:38;;;;;;;10.27;9.38;;;;;;;23.24;72.42;100927.56;5015224;28;102513;-51
2022/08/31 01:12:06;;;;;;;10.10;9.40;;;;;;;23.24;72.31;100933.94;5027389;28;103671;-51
2022/08/31 01:14:34;;;;;;;9.63;9.03;;;;;;;23.23;72.19;100925.97;5019481;27;102294;-51
2022/08/31 01:17:01;;;;;;;10.57;9.75;;;;;;;23.24;72.40;100931.16;5013922;28;107988;-50
2022/08/31 01:19:31;;;;;;;10.15;9.35;;;;;;;23.24;72.12;100928.38;5019956;28;102626;-50
2022/08/31 01:22:09;;;;;;;9.98;9.27;;;;;;;23.24;72.17;100933.94;5014448;28;102041;-50
2022/08/31 01:24:38;;;;;;;10.83;10.13;;;;;;;23.24;72.37;100927.56;5015363;28;102189;-50
2022/08/31 01:27:06;;;;;;;11.52;10.75;;;;;;;23.23;72.31;100921.22;5014434;28;104115;-50
2022/08/31 01:29:34;;;;;;;9.80;9.10;;;;;;;23.24;72.03;100922.81;5030748;27;102106;-50
2022/08/31 01:32:01;;;;;;;10.18;9.48;;;;;;;23.24;72.42;100925.59;5029398;27;102947;-50
2022/08/31 01:34:27;;;;;;;9.35;8.65;;;;;;;23.23;72.34;100926.78;5015413;28;102460;-50
2022/08/31 01:36:56;;;;;;;9.98;9.38;;;;;;;23.23;72.29;100929.53;5017134;27;104152;-50
2022/08/31 01:39:23;;;;;;;10.40;9.40;;;;;;;23.23;72.51;100924.00;5013918;28;102187;-50
2022/08/31 01:41:52;;;;;;;10.23;9.32;;;;;;;23.24;72.40;100928.38;5020896;28;103609;-50
2022/08/31 01:44:21;;;;;;;9.82;9.13;;;;;;;23.22;72.18;100914.06;5014548;28;102488;-50
2022/08/31 01:46:48;;;;;;;9.98;9.27;;;;;;;23.23;72.26;100926.78;5033857;27;104078;-50
2022/08/31 01:49:15;;;;;;;10.75;10.05;;;;;;;23.22;72.19;100916.00;5030856;27;102233;-51
2022/08/31 01:51:42;;;;;;;10.20;9.40;;;;;;;23.22;72.54;100918.78;5018085;28;102530;-50
2022/08/31 01:54:10;;;;;;;10.45;9.75;;;;;;;23.22;72.52;100910.44;5018619;28;102191;-50
2022/08/31 01:56:40;;;;;;;9.73;8.90;;;;;;;23.23;72.29;100904.56;5016991;28;104000;-50
2022/08/31 01:59:09;;;;;;;10.75;9.98;;;;;;;23.23;72.32;100914.88;5017807;28;101953;-51
2022/08/31 02:01:39;;;;;;;10.43;9.52;;;;;;;23.22;72.34;100908.50;5017889;28;101983;-50
2022/08/31 02:04:07;;;;;;;10.70;10.00;;;;;;;23.21;72.25;100901.31;5037775;27;102383;-50
2022/08/31 02:06:35;;;;;;;10.43;9.52;;;;;;;23.24;72.23;100916.47;5016989;28;103913;-51
2022/08/31 02:09:04;;;;;;;10.47;9.73;;;;;;;23.23;72.29;100909.31;5029600;27;102532;-50
2022/08/31 02:11:30;;;;;;;11.23;10.43;;;;;;;23.23;72.31;100921.22;5037624;27;102133;-50
2022/08/31 02:13:57;;;;;;;10.52;9.80;;;;;;;23.21;72.13;100911.63;5038716;27;102208;-50
2022/08/31 02:16:25;;;;;;;10.00;9.20;;;;;;;23.20;72.27;100905.25;5037229;27;104093;-50
2022/08/31 02:18:52;;;;;;;10.10;9.40;;;;;;;23.20;72.17;100916.38;5037702;27;102270;-50
2022/08/31 02:21:19;;;;;;;11.00;9.95;;;;;;;23.21;72.06;100906.88;5024932;27;102236;-51
2022/08/31 02:23:45;;;;;;;10.93;10.13;;;;;;;23.21;72.28;100906.06;5018217;28;102460;-51
2022/08/31 02:26:13;;;;;;;10.27;9.50;;;;;;;23.20;72.25;100899.72;5016690;28;103911;-50
2022/08/31 02:28:39;;;;;;;11.02;10.13;;;;;;;23.20;72.00;100888.59;5017100;28;102243;-50
2022/08/31 02:31:06;;;;;;;10.40;9.70;;;;;;;23.19;72.23;100898.09;4998271;28;102253;-50
2022/08/31 02:33:34;;;;;;;10.80;9.77;;;;;;;23.20;72.30;100902.47;4997428;28;102754;-50
2022/08/31 02:36:01;;;;;;;10.47;9.67;;;;;;;23.20;72.03;100902.47;4998449;28;103667;-50
2022/08/31 02:38:27;;;;;;;11.10;10.20;;;;;;;23.21;71.97;100906.88;5010885;28;102159;-51
2022/08/31 02:40:55;;;;;;;9.98;9.27;;;;;;;23.20;72.08;100905.25;5037017;27;102152;-50
2022/08/31 02:43:21;;;;;;;10.43;9.65;;;;;;;23.21;72.17;100914.41;5043101;27;102889;-51
2022/08/31 02:45:48;;;;;;;10.90;10.20;;;;;;;23.20;72.08;100919.13;5037177;27;104045;-50
2022/08/31 02:48:14;;;;;;;11.15;10.27;;;;;;;23.19;72.10;100914.75;5037321;27;102093;-50
2022/08/31 02:50:45;;;;;;;11.02;10.23;;;;;;;23.19;72.08;100911.97;5026938;27;102114;-50
2022/08/31 02:53:13;;;;;;;10.48;9.68;;;;;;;23.20;72.06;100915.56;5021340;28;102132;-50
2022/08/31 02:55:41;;;;;;;10.73;9.98;;;;;;;23.20;71.83;100912.78;5036820;27;103790;-51
2022/08/31 02:58:09;;;;;;;9.75;8.95;;;;;;;23.19;71.92;100909.19;5019279;27;102183;-50
2022/08/31 03:00:37;;;;;;;10.75;10.00;;;;;;;23.19;72.08;100913.94;5016659;28;101867;-50
2022/08/31 03:03:04;;;;;;;10.10;9.40;;;;;;;23.19;72.04;100903.66;5000748;28;102228;-50
2022/08/31 03:05:31;;;;;;;10.65;9.65;;;;;;;23.19;72.06;100909.19;4996440;28;104200;-50
2022/08/31 03:07:59;;;;;;;10.57;9.88;;;;;;;23.19;72.21;100913.94;5014929;28;102332;-50
2022/08/31 03:10:25;;;;;;;9.87;9.17;;;;;;;23.18;72.15;100910.34;5023294;28;102189;-50
2022/08/31 03:12:52;;;;;;;10.93;9.90;;;;;;;23.19;72.22;100913.94;5037794;27;102173;-51
2022/08/31 03:15:25;;;;;;;9.95;9.15;;;;;;;23.18;72.03;100913.13;5036749;27;104030;-50
2022/08/31 03:17:52;;;;;;;10.77;10.10;;;;;;;23.19;72.04;100914.75;5036670;27;102325;-50
2022/08/31 03:20:21;;;;;;;9.73;9.02;;;;;;;23.18;72.06;100913.13;5022211;27;102047;-50
2022/08/31 03:22:48;;;;;;;10.25;9.52;;;;;;;23.20;72.04;100921.91;5017010;28;102355;-50
2022/08/31 03:25:16;;;;;;;10.57;9.55;;;;;;;23.18;72.15;100921.44;5016015;28;103919;-50
2022/08/31 03:27:43;;;;;;;9.38;8.57;;;;;;;23.19;71.93;100920.31;5025510;27;102180;-50
2022/08/31 03:30:13;;;;;;;10.05;9.35;;;;;;;23.18;72.13;100918.69;5035981;27;102386;-50
2022/08/31 03:32:40;;;;;;;9.90;9.02;;;;;;;23.19;71.77;100928.63;5035851;27;102236;-50
2022/08/31 03:35:07;;;;;;;10.25;9.55;;;;;;;23.18;72.02;100927.00;5034918;27;103773;-50
2022/08/31 03:37:34;;;;;;;10.17;9.57;;;;;;;23.18;71.91;100932.56;5036616;27;102377;-50
2022/08/31 03:40:02;;;;;;;10.15;9.43;;;;;;;23.19;71.94;100936.16;5035819;27;102229;-51
2022/08/31 03:42:30;;;;;;;9.82;9.10;;;;;;;23.20;72.01;100929.44;5037595;27;102477;-50
2022/08/31 03:44:57;;;;;;;9.30;8.60;;;;;;;23.18;72.12;100938.09;5034805;27;103911;-50
2022/08/31 03:47:23;;;;;;;10.45;9.55;;;;;;;23.19;72.06;100942.53;5035431;27;102147;-50
2022/08/31 03:49:50;;;;;;;8.90;8.30;;;;;;;23.19;72.09;100939.75;5034977;27;102305;-50
2022/08/31 03:52:17;;;;;;;9.57;8.88;;;;;;;23.20;nan;100935.81;5036951;27;102337;-50
2022/08/31 03:54:43;;;;;;;8.80;8.20;;;;;;;23.19;72.11;100942.53;5035363;27;104214;-50
2022/08/31 03:57:10;;;;;;;10.50;9.60;;;;;;;23.19;72.13;100930.63;5036622;27;101898;-51
2022/08/31 03:59:38;;;;;;;9.90;9.10;;;;;;;23.20;72.01;100948.88;5036114;27;102529;-50
2022/08/31 04:02:05;;;;;;;10.30;9.55;;;;;;;23.21;71.99;100944.94;5036986;27;102430;-50
2022/08/31 04:04:31;;;;;;;9.40;8.70;;;;;;;23.21;72.04;100945.75;5035128;27;103894;-50
2022/08/31 04:06:58;;;;;;;10.25;9.63;;;;;;;23.21;72.02;100939.38;5036183;27;102305;-50
2022/08/31 04:09:26;;;;;;;9.55;8.88;;;;;;;23.19;72.04;100936.97;5034595;27;101862;-50
2022/08/31 04:11:53;;;;;;;9.65;9.02;;;;;;;23.20;72.12;100933.03;5036875;27;102126;-50
2022/08/31 04:14:21;;;;;;;9.48;8.88;;;;;;;23.20;71.99;100943.31;5035308;27;103919;-50
2022/08/31 04:16:49;;;;;;;9.68;8.88;;;;;;;23.19;72.00;100942.53;5035861;27;102247;-50
2022/08/31 04:19:16;;;;;;;10.43;9.60;;;;;;;23.19;72.17;100939.75;5035640;27;102346;-50
2022/08/31 04:21:43;;;;;;;9.65;8.85;;;;;;;23.19;72.21;100942.53;5022603;27;102646;-50
2022/08/31 04:24:10;;;;;;;10.68;9.80;;;;;;;23.20;72.13;100944.13;5014338;28;104194;-50
2022/08/31 04:26:39;;;;;;;;;;;;;;;23.20;72.07;100935.81;5016265;28;101994;-50
2022/08/31 04:29:06;;;;;;;9.07;8.47;;;;;;;23.19;72.25;100942.53;5014888;28;102396;-50
2022/08/31 04:31:35;;;;;;;8.65;8.05;;;;;;;23.19;72.19;100939.75;5024503;28;102215;-50
2022/08/31 04:34:04;;;;;;;8.57;7.87;;;;;;;23.19;72.20;100942.53;5034472;27;103349;-50
2022/08/31 04:36:30;;;;;;;8.82;8.15;;;;;;;23.19;72.22;100942.53;5035713;27;102240;-50
2022/08/31 04:38:59;;;;;;;9.15;8.55;;;;;;;23.19;72.28;100934.19;5033501;27;102364;-50
2022/08/31 04:41:27;;;;;;;9.68;9.07;;;;;;;23.20;72.09;100935.00;5035913;27;102354;-51
2022/08/31 04:43:57;;;;;;;9.13;8.43;;;;;;;23.21;72.31;100929.06;5019164;27;103923;-50
2022/08/31 04:46:24;;;;;;;9.30;8.60;;;;;;;23.19;72.10;100936.97;5015065;28;102203;-50
2022/08/31 04:48:50;;;;;;;10.40;9.60;;;;;;;23.19;72.08;100936.97;5014767;27;102172;-50
2022/08/31 04:51:20;;;;;;;9.35;8.75;;;;;;;23.20;72.18;100933.03;5016338;28;102004;-50
2022/08/31 04:53:47;;;;;;;9.90;9.23;;;;;;;23.18;72.10;100932.56;5037464;27;104058;-50
2022/08/31 04:56:16;;;;;;;8.88;8.27;;;;;;;23.20;72.17;100935.81;5022578;27;102342;-50
2022/08/31 04:58:45;;;;;;;9.77;9.18;;;;;;;23.18;72.01;100924.22;4994708;28;102334;-50
2022/08/31 05:01:13;;;;;;;9.07;8.48;;;;;;;23.19;71.70;100925.88;4995902;28;102259;-50
2022/08/31 05:03:40;;;;;;;10.15;9.32;;;;;;;23.20;71.80;100927.47;5004431;28;103915;-50
2022/08/31 05:06:12;;;;;;;9.35;8.55;;;;;;;23.21;72.03;100922.72;5014503;28;102040;-50
2022/08/31 05:08:41;;;;;;;10.38;9.57;;;;;;;23.20;71.97;100927.47;5013477;28;102344;-50
2022/08/31 05:11:09;;;;;;;9.05;8.43;;;;;;;23.20;71.87;100930.25;5010231;27;102317;-50
2022/08/31 05:13:38;;;;;;;8.85;8.25;;;;;;;23.19;71.97;100931.41;4994277;28;104128;-50
2022/08/31 05:16:08;;;;;;;9.85;9.15;;;;;;;23.20;71.99;100921.13;4998966;28;102228;-50
2022/08/31 05:18:36;;;;;;;8.75;8.20;;;;;;;23.23;71.89;100935.09;5000356;28;102214;-50
2022/08/31 05:21:08;;;;;;;10.03;9.13;;;;;;;23.21;71.65;100929.06;4996485;28;102164;-50
2022/08/31 05:23:35;;;;;;;9.75;9.05;;;;;;;23.23;71.83;100932.31;5017429;28;107985;-50
2022/08/31 05:26:03;;;;;;;9.63;9.00;;;;;;;23.24;72.12;100933.13;5021467;27;102245;-50
2022/08/31 05:28:32;;;;;;;10.23;9.40;;;;;;;23.24;71.94;100927.56;5021397;27;102037;-50
2022/08/31 05:30:58;;;;;;;9.57;8.77;;;;;;;23.24;71.88;100928.38;5018915;28;102523;-50
2022/08/31 05:33:26;;;;;;;10.20;9.45;;;;;;;23.24;71.70;100928.38;5024010;27;103953;-50
2022/08/31 05:35:52;;;;;;;10.00;9.40;;;;;;;23.24;71.91;100922.81;5022826;27;102244;-50
2022/08/31 05:38:19;;;;;;;9.30;8.70;;;;;;;23.26;71.72;100928.84;5020474;27;102236;-50
2022/08/31 05:40:50;;;;;;;9.65;8.85;;;;;;;23.26;71.93;100928.84;5035486;27;102206;-50
2022/08/31 05:43:18;;;;;;;10.65;9.75;;;;;;;23.27;71.84;100932.44;5037805;27;104023;-50
2022/08/31 05:45:45;;;;;;;9.20;8.50;;;;;;;23.28;71.91;100931.25;5034083;27;102282;-51
2022/08/31 05:48:11;;;;;;;10.20;9.30;;;;;;;23.29;71.64;100924.53;5017992;28;102010;-51
2022/08/31 05:50:38;;;;;;;9.27;8.60;;;;;;;23.28;71.61;100928.47;5019150;28;102281;-50
2022/08/31 05:53:05;;;;;;;11.10;10.15;;;;;;;23.29;71.78;100929.28;5034681;27;104083;-50
2022/08/31 05:55:32;;;;;;;10.95;10.00;;;;;;;23.29;71.70;100924.53;5023882;27;101949;-50
2022/08/31 05:57:59;;;;;;;10.35;9.48;;;;;;;23.30;71.82;100917.84;5022046;27;102610;-50
2022/08/31 06:00:26;;;;;;;10.45;9.63;;;;;;;23.30;71.45;100934.50;5036634;27;102482;-50
2022/08/31 06:02:53;;;;;;;10.90;10.10;;;;;;;23.31;71.66;100927.78;5035239;27;104135;-50
2022/08/31 06:05:19;;;;;;;11.13;10.15;;;;;;;23.31;71.83;100927.78;5038575;27;102386;-50
2022/08/31 06:07:46;;;;;;;9.90;9.15;;;;;;;23.32;71.60;100918.28;5042627;27;102231;-50
2022/08/31 06:10:13;;;;;;;10.65;9.95;;;;;;;23.32;71.74;100921.06;4997836;28;102628;-50
2022/08/31 06:12:41;;;;;;;10.98;10.18;;;;;;;23.33;71.58;100930.19;4996519;28;103950;-50
2022/08/31 06:15:09;;;;;;;10.82;10.07;;;;;;;23.34;71.64;100929.84;5011978;28;102490;-50
2022/08/31 06:17:38;;;;;;;10.18;9.30;;;;;;;23.34;71.60;100931.84;5014800;28;102486;-51
2022/08/31 06:20:06;;;;;;;10.70;9.93;;;;;;;23.34;71.65;100934.59;5023747;27;102190;-50
2022/08/31 06:22:33;;;;;;;10.90;10.20;;;;;;;23.34;71.28;100932.63;5031736;27;103952;-50
2022/08/31 06:25:00;;;;;;;10.18;9.35;;;;;;;23.34;71.60;100938.19;5034200;27;101989;-50
2022/08/31 06:27:26;;;;;;;10.30;9.60;;;;;;;23.34;71.57;100932.63;5026747;27;102101;-50
2022/08/31 06:29:53;;;;;;;9.43;8.65;;;;;;;23.35;71.85;100939.81;5027420;28;102226;-50
2022/08/31 06:32:20;;;;;;;10.48;9.68;;;;;;;23.36;71.30;100935.03;5022930;27;103868;-50
2022/08/31 06:34:48;;;;;;;9.48;8.77;;;;;;;23.36;71.46;100940.59;5035888;27;102561;-52
2022/08/31 06:37:14;;;;;;;10.57;9.77;;;;;;;23.36;71.49;100938.63;5022509;27;102611;-50
2022/08/31 06:39:41;;;;;;;10.82;9.93;;;;;;;23.38;71.54;100935.53;5015185;28;102327;-50
2022/08/31 06:42:08;;;;;;;9.85;9.05;;;;;;;23.37;71.47;100940.25;5022469;27;104071;-50
2022/08/31 06:44:35;;;;;;;10.65;9.55;;;;;;;23.38;71.39;100938.28;5034610;28;102391;-50
2022/08/31 06:47:02;;;;;;;10.70;9.80;;;;;;;23.38;71.28;100930.75;5033167;27;102089;-51
2022/08/31 06:49:28;;;;;;;10.30;9.40;;;;;;;23.39;71.35;100929.59;5037398;27;102380;-50
2022/08/31 06:51:59;;;;;;;11.05;10.10;;;;;;;23.40;71.15;100924.84;5028896;27;104101;-51
2022/08/31 06:54:25;;;;;;;10.77;9.98;;;;;;;23.41;71.25;100926.47;5026395;28;102664;-50
2022/08/31 06:56:51;;;;;;;10.70;9.82;;;;;;;23.40;71.41;100925.66;5021819;27;102535;-50
2022/08/31 06:59:18;;;;;;;10.05;9.35;;;;;;;23.41;71.17;100930.06;5032215;27;102222;-50
2022/08/31 07:01:44;;;;;;;11.52;10.73;;;;;;;23.43;71.40;100929.69;5026283;28;103931;-50
2022/08/31 07:04:11;;;;;;;10.68;9.88;;;;;;;23.43;71.03;100936.06;5032914;27;102188;-51
2022/08/31 07:06:41;;;;;;;11.00;10.23;;;;;;;23.44;71.31;100942.41;5033107;27;102332;-51
2022/08/31 07:09:12;;;;;;;10.10;9.10;;;;;;;23.45;71.08;100938.50;5037206;27;102493;-51
2022/08/31 07:11:42;;;;;;;9.88;9.18;;;;;;;23.44;71.29;100923.81;5035098;27;103887;-51
2022/08/31 07:14:13;;;;;;;10.50;9.80;;;;;;;23.45;71.26;100930.97;5035115;27;102225;-50
2022/08/31 07:16:42;;;;;;;10.00;9.27;;;;;;;23.46;71.10;100923.44;5024983;27;102520;-50
2022/08/31 07:19:09;;;;;;;11.07;10.18;;;;;;;23.47;71.16;100919.50;5029802;27;102462;-51
2022/08/31 07:21:40;;;;;;;9.75;9.00;;;;;;;23.48;70.96;100929.47;5030650;27;104071;-50
2022/08/31 07:24:09;;;;;;;11.27;10.48;;;;;;;23.48;71.01;100907.25;5033719;27;102277;-50
2022/08/31 07:26:38;;;;;;;10.55;9.80;;;;;;;23.48;70.96;100913.59;5028109;27;102536;-51
2022/08/31 07:29:06;;;;;;;10.98;9.57;;;;;;;23.49;71.05;100911.63;5034923;28;102320;-50
2022/08/31 07:31:55;;;;;;;10.70;9.68;;;;;;;23.50;70.81;100907.69;5034747;27;103942;-50
2022/08/31 07:34:25;;;;;;;9.80;9.10;;;;;;;23.51;71.03;100906.50;5030482;28;102146;-50
2022/08/31 07:42:28;;;;;;;10.47;9.77;;;;;;;23.54;70.97;100911.34;5025321;27;103633;-50
2022/08/31 07:44:57;;;;;;;10.38;9.38;;;;;;;23.57;70.83;100909.84;5032422;27;103294;-51
2022/08/31 07:47:27;;;;;;;11.20;10.40;;;;;;;23.58;70.77;100903.94;5030937;27;102440;-50
2022/08/31 07:49:55;;;;;;;11.05;10.15;;;;;;;23.57;70.67;100905.09;5034031;27;102507;-51
2022/08/31 07:52:23;;;;;;;11.32;10.27;;;;;;;23.58;71.07;100903.94;5033429;27;104077;-50
2022/08/31 07:54:53;;;;;;;10.20;9.40;;;;;;;23.60;70.71;100901.63;5035268;27;102479;-51
2022/08/31 07:57:21;;;;;;;11.13;10.23;;;;;;;23.62;70.34;100896.53;5030996;27;104565;-50
2022/08/31 07:59:53;;;;;;;11.98;10.85;;;;;;;23.61;70.34;100896.84;5030343;27;102145;-51
2022/08/31 08:02:20;;;;;;;12.48;11.38;;;;;;;23.61;70.54;100897.66;5024780;27;103820;-50
2022/08/31 08:04:49;;;;;;;11.95;11.05;;;;;;;23.59;70.71;100894.44;5036336;27;102338;-50
2022/08/31 08:07:17;;;;;;;11.93;11.00;;;;;;;23.60;70.92;100900.81;5015921;27;102200;-50
2022/08/31 08:09:47;;;;;;;11.80;10.90;;;;;;;23.61;70.94;100897.66;5016727;28;102237;-50
2022/08/31 08:12:15;;;;;;;11.82;10.57;;;;;;;23.62;70.53;100890.97;5019825;28;103908;-50
2022/08/31 08:14:42;;;;;;;10.95;10.15;;;;;;;23.62;70.75;100893.75;5035780;27;102335;-50
2022/08/31 08:17:08;;;;;;;11.85;10.85;;;;;;;23.61;70.97;100903.22;5035009;27;102364;-50
2022/08/31 08:19:35;;;;;;;10.82;10.07;;;;;;;23.62;70.57;100893.75;5036856;27;102257;-50
2022/08/31 08:22:05;;;;;;;11.45;10.50;;;;;;;23.62;70.73;100898.47;5034707;27;104068;-50
2022/08/31 08:24:32;;;;;;;11.85;11.05;;;;;;;23.62;70.79;100898.47;5033322;27;102544;-50
2022/08/31 08:26:59;;;;;;;11.27;10.48;;;;;;;23.62;70.79;100890.97;5014697;28;102332;-50
2022/08/31 08:29:27;;;;;;;10.85;9.98;;;;;;;23.63;70.69;100894.53;5015946;28;102611;-51
2022/08/31 08:31:53;;;;;;;11.13;10.32;;;;;;;23.62;70.75;100888.19;5028563;28;103918;-50
2022/08/31 08:34:21;;;;;;;12.35;10.05;;;;;;;23.63;70.67;100875.91;5022697;27;102195;-50
2022/08/31 08:36:48;;;;;;;11.23;10.43;;;;;;;23.64;70.85;100885.03;5024089;28;102462;-50
2022/08/31 08:39:16;;;;;;;11.88;10.98;;;;;;;23.64;70.62;100873.94;5029816;27;102329;-48
2022/08/31 08:41:45;;;;;;;11.23;10.30;;;;;;;23.64;70.66;100877.50;5033827;27;104099;-50
2022/08/31 08:44:13;;;;;;;12.23;11.32;;;;;;;23.64;70.94;100871.94;5030280;27;102123;-50
2022/08/31 08:46:46;;;;;;;12.10;11.13;;;;;;;23.64;70.41;100879.47;5015275;28;102313;-50
2022/08/31 08:49:21;;;;;;;12.35;11.45;;;;;;;23.65;70.57;100876.34;5016291;28;102172;-50
2022/08/31 08:51:52;;;;;;;11.18;10.38;;;;;;;23.65;70.68;100876.34;5031704;27;103903;-50
2022/08/31 08:54:27;;;;;;;10.52;9.73;;;;;;;23.67;70.30;100874.06;5035186;27;102290;-50
2022/08/31 08:56:54;;;;;;;11.52;10.43;;;;;;;23.68;70.62;100875.66;5032907;27;102288;-50
2022/08/31 08:59:20;;;;;;;11.85;10.95;;;;;;;23.69;70.14;100877.28;5030294;27;102312;-50
2022/08/31 09:01:52;;;;;;;11.90;11.07;;;;;;;23.70;70.48;100866.97;5028536;27;104532;-50
2022/08/31 09:04:34;;;;;;;12.13;11.27;;;;;;;23.69;70.54;100871.75;5026680;27;102199;-50
2022/08/31 09:07:15;;;;;;;11.40;10.30;;;;;;;23.67;70.65;100873.25;5019522;28;102394;-50
2022/08/31 09:09:48;;;;;;;10.80;10.00;;;;;;;23.66;70.74;100864.09;5015999;28;102247;-50
2022/08/31 09:12:29;;;;;;;12.52;11.63;;;;;;;23.65;70.75;100854.09;5014178;28;104118;-50
2022/08/31 09:15:40;;;;;;;10.60;9.90;;;;;;;23.68;70.58;100858.19;5014797;28;102328;-51
2022/08/31 09:18:23;;;;;;;12.30;11.40;;;;;;;23.69;70.23;100868.97;5013329;28;102054;-50
2022/08/31 09:21:06;;;;;;;10.52;9.80;;;;;;;23.67;70.55;100859.34;5016578;28;102051;-50
2022/08/31 09:23:40;;;;;;;11.25;10.40;;;;;;;23.67;70.73;100854.59;5015498;28;103987;-50
2022/08/31 09:26:06;;;;;;;10.95;9.98;;;;;;;23.66;70.90;100850.19;5015857;28;102057;-51
2022/08/31 09:28:36;;;;;;;11.68;10.55;;;;;;;23.70;70.40;100831.66;5016035;28;102159;-50
2022/08/31 09:31:03;;;;;;;13.05;11.60;;;;;;;23.68;70.50;100827.63;5016287;28;102135;-50
2022/08/31 09:33:34;;;;;;;12.50;11.40;;;;;;;23.67;70.79;100818.50;5015223;28;103877;-50
2022/08/31 09:36:15;;;;;;;10.73;10.02;;;;;;;23.65;70.64;100812.44;5032343;27;102265;-50
2022/08/31 09:38:45;;;;;;;12.63;11.73;;;;;;;23.66;70.67;100816.84;5034951;27;102962;-50
2022/08/31 09:41:32;;;;;;;11.90;11.10;;;;;;;23.66;70.56;100822.41;5036160;27;102441;-50
2022/08/31 09:44:20;;;;;;;11.27;10.35;;;;;;;23.67;70.59;100824.03;5014862;28;103914;-50
2022/08/31 09:46:48;;;;;;;11.05;10.05;;;;;;;23.69;70.56;100832.84;5029203;28;102113;-50
2022/08/31 09:49:21;;;;;;;12.25;11.45;;;;;;;23.66;70.83;100839.06;5003314;27;102284;-50
2022/08/31 09:51:49;;;;;;;12.65;11.73;;;;;;;23.64;70.65;100841.38;5016069;28;102174;-50
2022/08/31 09:57:07;;;;;;;12.73;11.52;;;;;;;23.67;70.78;100834.34;5024537;27;102190;-50
2022/08/31 09:59:36;;;;;;;11.20;10.40;;;;;;;23.66;70.75;100821.59;5035287;27;102357;-50
2022/08/31 10:02:07;;;;;;;10.90;10.10;;;;;;;23.67;70.45;100826.81;5023528;27;102087;-50
2022/08/31 10:04:46;;;;;;;11.32;10.52;;;;;;;23.65;70.72;100831.88;5014590;28;104241;-50
2022/08/31 10:07:27;;;;;;;12.00;11.10;;;;;;;23.65;70.25;100823.53;5022656;28;102260;-51
2022/08/31 10:09:58;;;;;;;12.88;11.98;;;;;;;23.65;70.70;100820.78;5018953;28;102031;-50
2022/08/31 10:12:36;;;;;;;13.15;12.15;;;;;;;23.68;70.67;100819.28;5039727;27;102273;-50
2022/08/31 10:15:11;;;;;;;12.57;11.48;;;;;;;23.68;70.66;100820.09;5038050;27;104007;-50
2022/08/31 10:17:45;;;;;;;11.38;10.50;;;;;;;23.66;70.38;100810.50;5038886;27;102057;-50
2022/08/31 10:20:19;;;;;;;12.63;11.52;;;;;;;23.65;70.79;100809.66;5038379;27;101892;-50
2022/08/31 10:22:50;;;;;;;12.07;11.18;;;;;;;23.64;70.34;100810.84;5027710;27;102129;-50
2022/08/31 10:25:22;;;;;;;11.98;11.18;;;;;;;23.64;70.89;100799.72;5018200;28;103906;-50
2022/08/31 10:27:56;;;;;;;12.85;11.75;;;;;;;23.64;70.61;100791.38;5018696;28;102234;-50
2022/08/31 10:30:29;;;;;;;12.35;11.45;;;;;;;23.65;70.78;100804.09;5018187;27;102699;-50
2022/08/31 10:33:04;;;;;;;11.88;11.00;;;;;;;23.64;70.84;100802.50;5030178;27;102278;-50
2022/08/31 10:35:42;;;;;;;12.00;11.10;;;;;;;23.63;70.80;100806.44;5023664;27;103859;-51
2022/08/31 10:38:20;;;;;;;12.95;11.90;;;;;;;23.63;70.74;100800.88;5020051;28;102311;-50
2022/08/31 10:40:54;;;;;;;11.15;10.25;;;;;;;23.62;70.85;100798.44;5029009;27;102006;-50
2022/08/31 10:43:28;;;;;;;11.68;10.85;;;;;;;23.63;70.58;100795.34;5039544;27;102026;-50
2022/08/31 10:45:56;;;;;;;11.55;10.65;;;;;;;23.62;70.54;100793.72;5036166;27;103957;-51
2022/08/31 10:48:24;;;;;;;11.95;11.10;;;;;;;23.60;70.84;100800.81;5038465;27;102043;-51
2022/08/31 10:51:04;;;;;;;12.82;11.73;;;;;;;23.59;70.60;100791.66;5034267;27;101983;-51
2022/08/31 10:53:49;;;;;;;13.68;12.57;;;;;;;23.60;70.70;100790.50;5034934;27;102161;-50
2022/08/31 10:56:24;;;;;;;11.73;10.82;;;;;;;23.61;70.80;100797.66;5032335;27;103906;-50
2022/08/31 10:59:05;;;;;;;13.27;12.25;;;;;;;23.59;70.82;100785.31;5020179;28;102155;-50
2022/08/31 11:01:45;;;;;;;11.40;10.52;;;;;;;23.59;70.85;100794.44;5019945;27;102443;-50
2022/08/31 11:04:34;;;;;;;12.45;11.45;;;;;;;23.59;70.66;100796.41;5029417;27;102225;-50
2022/08/31 11:07:12;;;;;;;12.35;11.45;;;;;;;23.57;70.85;100796.75;5024839;27;108168;-50
2022/08/31 11:09:44;;;;;;;;;;;;;;;23.57;70.65;100802.31;5036639;27;102193;-50
2022/08/31 11:12:17;;;;;;;11.77;10.88;;;;;;;23.58;70.95;100792.81;5037623;27;102041;-50
2022/08/31 11:15:09;;;;;;;12.13;11.13;;;;;;;23.57;71.00;100799.53;5039259;27;102647;-50
2022/08/31 11:17:54;;;;;;;11.85;10.77;;;;;;;23.56;70.65;100800.72;5017083;28;103930;-50
2022/08/31 11:20:47;;;;;;;11.45;10.55;;;;;;;23.57;70.76;100787.63;5016612;28;102220;-50
2022/08/31 11:23:34;;;;;;;11.60;10.60;;;;;;;23.57;70.72;100791.19;5020062;28;102018;-50
2022/08/31 11:26:32;;;;;;;12.55;11.45;;;;;;;23.56;70.85;100784.03;5018594;28;102060;-50
2022/08/31 11:29:01;;;;;;;9.80;9.10;;;;;;;23.56;70.83;100788.78;5023949;27;104055;-50
2022/08/31 11:31:32;;;;;;;12.80;11.68;;;;;;;23.56;70.79;100775.69;5028753;27;102073;-50
2022/08/31 11:34:12;;;;;;;12.48;11.57;;;;;;;23.55;70.71;100764.94;5026929;27;102083;-50